sensor_id;sensor_type;location;lat;lon;timestamp;temperature;humidity
18456;DHT22;9357;49.900;8.208;2022-12-29T00:00:26;11.00;99.90
18456;DHT22;9357;49.900;8.208;2022-12-29T00:01:59;11.00;99.90
18456;DHT22;9357;49.900;8.208;2022-12-29T00:03:31;11.00;99.90
18456;DHT22;9357;49.900;8.208;2022-12-29T00:05:05;11.00;99.90
18456;DHT22;9357;49.900;8.208;2022-12-29T00:06:38;11.00;99.90
18456;DHT22;9357;49.900;8.208;2022-12-29T00:08:11;10.90;99.90
18456;DHT22;9357;49.900;8.208;2022-12-29T00:09:43;11.10;99.90
18456;DHT22;9357;49.900;8.208;2022-12-29T00:11:18;11.10;99.90
18456;DHT22;9357;49.900;8.208;2022-12-29T00:12:50;11.10;99.90
18456;DHT22;9357;49.900;8.208;2022-12-29T00:14:41;11.10;99.90
18456;DHT22;9357;49.900;8.208;2022-12-29T00:16:33;11.10;99.90
18456;DHT22;9357;49.900;8.208;2022-12-29T00:18:07;11.10;99.90
18456;DHT22;9357;49.900;8.208;2022-12-29T00:19:40;11.10;99.90
18456;DHT22;9357;49.900;8.208;2022-12-29T00:21:30;11.10;99.90
18456;DHT22;9357;49.900;8.208;2022-12-29T00:23:29;11.10;99.90
18456;DHT22;9357;49.900;8.208;2022-12-29T00:25:19;11.10;99.90
18456;DHT22;9357;49.900;8.208;2022-12-29T00:27:11;11.10;99.90
18456;DHT22;9357;49.900;8.208;2022-12-29T00:29:03;11.10;99.90
18456;DHT22;9357;49.900;8.208;2022-12-29T00:30:58;11.10;99.90
18456;DHT22;9357;49.900;8.208;2022-12-29T00:32:48;11.10;99.90
18456;DHT22;9357;49.900;8.208;2022-12-29T00:34:39;11.10;99.90
18456;DHT22;9357;49.900;8.208;2022-12-29T00:36:32;11.10;99.90
18456;DHT22;9357;49.900;8.208;2022-12-29T00:38:08;11.10;99.90
18456;DHT22;9357;49.900;8.208;2022-12-29T00:39:59;11.10;99.90
18456;DHT22;9357;49.900;8.208;2022-12-29T00:41:49;11.10;99.90
18456;DHT22;9357;49.900;8.208;2022-12-29T00:43:39;11.10;99.90
18456;DHT22;9357;49.900;8.208;2022-12-29T00:45:30;11.10;99.90
18456;DHT22;9357;49.900;8.208;2022-12-29T00:47:04;11.10;99.90
18456;DHT22;9357;49.900;8.208;2022-12-29T00:48:36;11.10;99.90
18456;DHT22;9357;49.900;8.208;2022-12-29T00:50:27;11.10;99.90
18456;DHT22;9357;49.900;8.208;2022-12-29T00:52:00;11.00;99.90
18456;DHT22;9357;49.900;8.208;2022-12-29T00:53:33;11.00;99.90
18456;DHT22;9357;49.900;8.208;2022-12-29T00:55:07;11.00;99.90
18456;DHT22;9357;49.900;8.208;2022-12-29T00:56:39;11.00;99.90
18456;DHT22;9357;49.900;8.208;2022-12-29T00:58:11;11.00;99.90
18456;DHT22;9357;49.900;8.208;2022-12-29T00:59:44;11.00;99.90
18456;DHT22;9357;49.900;8.208;2022-12-29T01:01:17;11.00;99.90
18456;DHT22;9357;49.900;8.208;2022-12-29T01:02:50;11.00;99.90
18456;DHT22;9357;49.900;8.208;2022-12-29T01:04:25;11.00;99.90
18456;DHT22;9357;49.900;8.208;2022-12-29T01:06:00;11.00;99.90
18456;DHT22;9357;49.900;8.208;2022-12-29T01:07:31;11.00;99.90
18456;DHT22;9357;49.900;8.208;2022-12-29T01:09:05;11.00;99.90
18456;DHT22;9357;49.900;8.208;2022-12-29T01:10:59;11.00;99.90
18456;DHT22;9357;49.900;8.208;2022-12-29T01:12:33;11.00;99.90
18456;DHT22;9357;49.900;8.208;2022-12-29T01:14:15;11.00;99.90
18456;DHT22;9357;49.900;8.208;2022-12-29T01:15:49;11.00;99.90
18456;DHT22;9357;49.900;8.208;2022-12-29T01:17:22;10.90;99.90
18456;DHT22;9357;49.900;8.208;2022-12-29T01:18:56;11.00;99.90
18456;DHT22;9357;49.900;8.208;2022-12-29T01:20:28;10.90;99.90
18456;DHT22;9357;49.900;8.208;2022-12-29T01:22:01;10.90;99.90
18456;DHT22;9357;49.900;8.208;2022-12-29T01:23:33;11.00;99.90
18456;DHT22;9357;49.900;8.208;2022-12-29T01:25:06;11.00;99.90
18456;DHT22;9357;49.900;8.208;2022-12-29T01:26:39;11.00;99.90
18456;DHT22;9357;49.900;8.208;2022-12-29T01:28:11;11.00;99.90
18456;DHT22;9357;49.900;8.208;2022-12-29T01:29:44;10.90;99.90
18456;DHT22;9357;49.900;8.208;2022-12-29T01:31:17;11.00;99.90
18456;DHT22;9357;49.900;8.208;2022-12-29T01:32:50;10.90;99.90
18456;DHT22;9357;49.900;8.208;2022-12-29T01:34:24;11.00;99.90
18456;DHT22;9357;49.900;8.208;2022-12-29T01:36:00;11.00;99.90
18456;DHT22;9357;49.900;8.208;2022-12-29T01:37:32;11.10;99.90
18456;DHT22;9357;49.900;8.208;2022-12-29T01:39:04;11.00;99.90
18456;DHT22;9357;49.900;8.208;2022-12-29T01:40:43;11.00;99.90
18456;DHT22;9357;49.900;8.208;2022-12-29T01:42:18;11.10;99.90
18456;DHT22;9357;49.900;8.208;2022-12-29T01:43:52;11.20;99.90
18456;DHT22;9357;49.900;8.208;2022-12-29T01:45:24;11.10;99.90
18456;DHT22;9357;49.900;8.208;2022-12-29T01:46:57;11.10;99.90
18456;DHT22;9357;49.900;8.208;2022-12-29T01:48:29;11.10;99.90
18456;DHT22;9357;49.900;8.208;2022-12-29T01:50:08;11.10;99.90
18456;DHT22;9357;49.900;8.208;2022-12-29T01:51:44;11.10;99.90
18456;DHT22;9357;49.900;8.208;2022-12-29T01:53:20;11.10;99.90
18456;DHT22;9357;49.900;8.208;2022-12-29T01:54:56;11.10;99.90
18456;DHT22;9357;49.900;8.208;2022-12-29T01:56:30;11.10;99.90
18456;DHT22;9357;49.900;8.208;2022-12-29T01:58:04;11.10;99.90
18456;DHT22;9357;49.900;8.208;2022-12-29T01:59:40;11.20;99.90
18456;DHT22;9357;49.900;8.208;2022-12-29T02:01:14;11.20;99.90
18456;DHT22;9357;49.900;8.208;2022-12-29T02:02:51;11.20;99.90
18456;DHT22;9357;49.900;8.208;2022-12-29T02:04:25;11.20;99.90
18456;DHT22;9357;49.900;8.208;2022-12-29T02:06:03;11.20;99.90
18456;DHT22;9357;49.900;8.208;2022-12-29T02:07:38;11.20;99.90
18456;DHT22;9357;49.900;8.208;2022-12-29T02:09:11;11.20;99.90
18456;DHT22;9357;49.900;8.208;2022-12-29T02:10:44;11.20;99.90
18456;DHT22;9357;49.900;8.208;2022-12-29T02:12:19;11.20;99.90
18456;DHT22;9357;49.900;8.208;2022-12-29T02:13:52;11.30;99.90
18456;DHT22;9357;49.900;8.208;2022-12-29T02:15:35;11.20;99.90
18456;DHT22;9357;49.900;8.208;2022-12-29T02:17:13;11.30;99.90
18456;DHT22;9357;49.900;8.208;2022-12-29T02:18:56;11.20;99.90
18456;DHT22;9357;49.900;8.208;2022-12-29T02:20:48;11.20;99.90
18456;DHT22;9357;49.900;8.208;2022-12-29T02:22:29;11.20;99.90
18456;DHT22;9357;49.900;8.208;2022-12-29T02:24:31;11.30;99.90
18456;DHT22;9357;49.900;8.208;2022-12-29T02:26:30;11.30;99.90
18456;DHT22;9357;49.900;8.208;2022-12-29T02:28:46;11.20;99.90
18456;DHT22;9357;49.900;8.208;2022-12-29T02:30:48;11.20;99.90
18456;DHT22;9357;49.900;8.208;2022-12-29T02:32:30;11.20;99.90
18456;DHT22;9357;49.900;8.208;2022-12-29T02:34:14;11.30;99.90
18456;DHT22;9357;49.900;8.208;2022-12-29T02:35:56;11.30;99.90
18456;DHT22;9357;49.900;8.208;2022-12-29T02:37:37;11.30;99.90
18456;DHT22;9357;49.900;8.208;2022-12-29T02:39:19;11.20;99.90
18456;DHT22;9357;49.900;8.208;2022-12-29T02:40:58;11.20;99.90
18456;DHT22;9357;49.900;8.208;2022-12-29T02:42:38;11.20;99.90
18456;DHT22;9357;49.900;8.208;2022-12-29T02:44:17;11.20;99.90
18456;DHT22;9357;49.900;8.208;2022-12-29T02:45:57;11.20;99.90
18456;DHT22;9357;49.900;8.208;2022-12-29T02:47:36;11.20;99.90
18456;DHT22;9357;49.900;8.208;2022-12-29T02:49:12;11.20;99.90
18456;DHT22;9357;49.900;8.208;2022-12-29T02:50:50;11.20;99.90
18456;DHT22;9357;49.900;8.208;2022-12-29T02:52:29;11.20;99.90
18456;DHT22;9357;49.900;8.208;2022-12-29T02:54:03;11.10;99.90
18456;DHT22;9357;49.900;8.208;2022-12-29T02:55:54;11.20;99.90
18456;DHT22;9357;49.900;8.208;2022-12-29T02:57:31;11.20;99.90
18456;DHT22;9357;49.900;8.208;2022-12-29T02:59:05;11.20;99.90
18456;DHT22;9357;49.900;8.208;2022-12-29T03:00:43;11.10;99.90
18456;DHT22;9357;49.900;8.208;2022-12-29T03:02:54;11.10;99.90
18456;DHT22;9357;49.900;8.208;2022-12-29T03:04:38;11.20;99.90
18456;DHT22;9357;49.900;8.208;2022-12-29T03:06:25;11.20;99.90
18456;DHT22;9357;49.900;8.208;2022-12-29T03:08:05;11.20;99.90
18456;DHT22;9357;49.900;8.208;2022-12-29T03:09:43;11.20;99.90
18456;DHT22;9357;49.900;8.208;2022-12-29T03:11:20;11.20;99.90
18456;DHT22;9357;49.900;8.208;2022-12-29T03:13:18;11.20;99.90
18456;DHT22;9357;49.900;8.208;2022-12-29T03:15:15;11.10;99.90
18456;DHT22;9357;49.900;8.208;2022-12-29T03:17:09;11.10;99.90
18456;DHT22;9357;49.900;8.208;2022-12-29T03:18:49;11.10;99.90
18456;DHT22;9357;49.900;8.208;2022-12-29T03:20:26;11.10;99.90
18456;DHT22;9357;49.900;8.208;2022-12-29T03:22:05;11.10;99.90
18456;DHT22;9357;49.900;8.208;2022-12-29T03:23:57;11.10;99.90
18456;DHT22;9357;49.900;8.208;2022-12-29T03:25:31;11.10;99.90
18456;DHT22;9357;49.900;8.208;2022-12-29T03:27:06;11.20;99.90
18456;DHT22;9357;49.900;8.208;2022-12-29T03:28:45;11.20;99.90
18456;DHT22;9357;49.900;8.208;2022-12-29T03:30:19;11.20;99.90
18456;DHT22;9357;49.900;8.208;2022-12-29T03:31:53;11.20;99.90
18456;DHT22;9357;49.900;8.208;2022-12-29T03:33:28;11.30;99.90
18456;DHT22;9357;49.900;8.208;2022-12-29T03:35:04;11.30;99.90
18456;DHT22;9357;49.900;8.208;2022-12-29T03:36:42;11.30;99.90
18456;DHT22;9357;49.900;8.208;2022-12-29T03:38:18;11.30;99.90
18456;DHT22;9357;49.900;8.208;2022-12-29T03:39:52;11.40;99.90
18456;DHT22;9357;49.900;8.208;2022-12-29T03:41:28;11.40;99.90
18456;DHT22;9357;49.900;8.208;2022-12-29T03:43:03;11.40;99.90
18456;DHT22;9357;49.900;8.208;2022-12-29T03:44:37;11.40;99.90
18456;DHT22;9357;49.900;8.208;2022-12-29T03:46:11;11.40;99.90
18456;DHT22;9357;49.900;8.208;2022-12-29T03:47:44;11.40;99.90
18456;DHT22;9357;49.900;8.208;2022-12-29T03:49:16;11.40;99.90
18456;DHT22;9357;49.900;8.208;2022-12-29T03:50:50;11.40;99.90
18456;DHT22;9357;49.900;8.208;2022-12-29T03:52:23;11.40;99.90
18456;DHT22;9357;49.900;8.208;2022-12-29T03:53:56;11.50;99.90
18456;DHT22;9357;49.900;8.208;2022-12-29T03:55:28;11.50;99.90
18456;DHT22;9357;49.900;8.208;2022-12-29T03:57:01;11.40;99.90
18456;DHT22;9357;49.900;8.208;2022-12-29T03:58:34;11.40;99.90
18456;DHT22;9357;49.900;8.208;2022-12-29T04:00:08;11.50;99.90
18456;DHT22;9357;49.900;8.208;2022-12-29T04:01:41;11.50;99.90
18456;DHT22;9357;49.900;8.208;2022-12-29T04:03:14;11.50;99.90
18456;DHT22;9357;49.900;8.208;2022-12-29T04:04:48;11.50;99.90
18456;DHT22;9357;49.900;8.208;2022-12-29T04:06:22;11.50;99.90
18456;DHT22;9357;49.900;8.208;2022-12-29T04:07:56;11.50;99.90
18456;DHT22;9357;49.900;8.208;2022-12-29T04:09:29;11.50;99.90
18456;DHT22;9357;49.900;8.208;2022-12-29T04:11:02;11.50;99.90
18456;DHT22;9357;49.900;8.208;2022-12-29T04:12:36;11.50;99.90
18456;DHT22;9357;49.900;8.208;2022-12-29T04:14:08;11.50;99.90
18456;DHT22;9357;49.900;8.208;2022-12-29T04:15:40;11.50;99.90
18456;DHT22;9357;49.900;8.208;2022-12-29T04:17:14;11.50;99.90
18456;DHT22;9357;49.900;8.208;2022-12-29T04:18:48;11.50;99.90
18456;DHT22;9357;49.900;8.208;2022-12-29T04:20:21;11.50;99.90
18456;DHT22;9357;49.900;8.208;2022-12-29T04:22:13;11.50;99.90
18456;DHT22;9357;49.900;8.208;2022-12-29T04:23:45;11.50;99.90
18456;DHT22;9357;49.900;8.208;2022-12-29T04:25:17;11.50;99.90
18456;DHT22;9357;49.900;8.208;2022-12-29T04:26:50;11.50;99.90
18456;DHT22;9357;49.900;8.208;2022-12-29T04:28:23;11.50;99.90
18456;DHT22;9357;49.900;8.208;2022-12-29T04:29:55;11.50;99.90
18456;DHT22;9357;49.900;8.208;2022-12-29T04:31:27;11.50;99.90
18456;DHT22;9357;49.900;8.208;2022-12-29T04:33:00;11.50;99.90
18456;DHT22;9357;49.900;8.208;2022-12-29T04:34:32;11.50;99.90
18456;DHT22;9357;49.900;8.208;2022-12-29T04:36:05;11.50;99.90
18456;DHT22;9357;49.900;8.208;2022-12-29T04:37:39;11.50;99.90
18456;DHT22;9357;49.900;8.208;2022-12-29T04:39:12;11.50;99.90
18456;DHT22;9357;49.900;8.208;2022-12-29T04:40:45;11.60;99.90
18456;DHT22;9357;49.900;8.208;2022-12-29T04:42:18;11.50;99.90
18456;DHT22;9357;49.900;8.208;2022-12-29T04:43:51;11.50;99.90
18456;DHT22;9357;49.900;8.208;2022-12-29T04:45:23;11.50;99.90
18456;DHT22;9357;49.900;8.208;2022-12-29T04:46:56;11.50;99.90
18456;DHT22;9357;49.900;8.208;2022-12-29T04:48:29;11.50;99.90
18456;DHT22;9357;49.900;8.208;2022-12-29T04:50:02;11.40;99.90
18456;DHT22;9357;49.900;8.208;2022-12-29T04:51:35;11.40;99.90
18456;DHT22;9357;49.900;8.208;2022-12-29T04:53:09;11.40;99.90
18456;DHT22;9357;49.900;8.208;2022-12-29T04:54:41;11.30;99.90
18456;DHT22;9357;49.900;8.208;2022-12-29T04:56:14;11.30;99.90
18456;DHT22;9357;49.900;8.208;2022-12-29T04:57:47;11.30;99.90
18456;DHT22;9357;49.900;8.208;2022-12-29T04:59:19;11.40;99.90
18456;DHT22;9357;49.900;8.208;2022-12-29T05:00:52;11.30;99.90
18456;DHT22;9357;49.900;8.208;2022-12-29T05:02:25;11.30;99.90
18456;DHT22;9357;49.900;8.208;2022-12-29T05:03:58;11.30;99.90
18456;DHT22;9357;49.900;8.208;2022-12-29T05:05:31;11.30;99.90
18456;DHT22;9357;49.900;8.208;2022-12-29T05:07:02;11.30;99.90
18456;DHT22;9357;49.900;8.208;2022-12-29T05:08:36;11.30;99.90
18456;DHT22;9357;49.900;8.208;2022-12-29T05:10:09;11.30;99.90
18456;DHT22;9357;49.900;8.208;2022-12-29T05:11:41;11.30;99.90
18456;DHT22;9357;49.900;8.208;2022-12-29T05:13:14;11.30;99.90
18456;DHT22;9357;49.900;8.208;2022-12-29T05:14:49;11.30;99.90
18456;DHT22;9357;49.900;8.208;2022-12-29T05:16:21;11.30;99.90
18456;DHT22;9357;49.900;8.208;2022-12-29T05:17:54;11.30;99.90
18456;DHT22;9357;49.900;8.208;2022-12-29T05:19:27;11.30;99.90
18456;DHT22;9357;49.900;8.208;2022-12-29T05:21:00;11.20;99.90
18456;DHT22;9357;49.900;8.208;2022-12-29T05:22:33;11.20;99.90
18456;DHT22;9357;49.900;8.208;2022-12-29T05:24:07;11.20;99.90
18456;DHT22;9357;49.900;8.208;2022-12-29T05:25:40;11.10;99.90
18456;DHT22;9357;49.900;8.208;2022-12-29T05:27:13;11.20;99.90
18456;DHT22;9357;49.900;8.208;2022-12-29T05:28:46;11.20;99.90
18456;DHT22;9357;49.900;8.208;2022-12-29T05:30:18;11.20;99.90
18456;DHT22;9357;49.900;8.208;2022-12-29T05:31:51;11.20;99.90
18456;DHT22;9357;49.900;8.208;2022-12-29T05:33:24;11.20;99.90
18456;DHT22;9357;49.900;8.208;2022-12-29T05:34:57;11.20;99.90
18456;DHT22;9357;49.900;8.208;2022-12-29T05:36:31;11.30;99.90
18456;DHT22;9357;49.900;8.208;2022-12-29T05:38:08;11.30;99.90
18456;DHT22;9357;49.900;8.208;2022-12-29T05:39:42;11.30;99.90
18456;DHT22;9357;49.900;8.208;2022-12-29T05:41:15;11.30;99.90
18456;DHT22;9357;49.900;8.208;2022-12-29T05:42:46;11.30;99.90
18456;DHT22;9357;49.900;8.208;2022-12-29T05:44:19;11.30;99.90
18456;DHT22;9357;49.900;8.208;2022-12-29T05:45:52;11.30;99.90
18456;DHT22;9357;49.900;8.208;2022-12-29T05:47:25;11.40;99.90
18456;DHT22;9357;49.900;8.208;2022-12-29T05:48:58;11.50;99.90
18456;DHT22;9357;49.900;8.208;2022-12-29T05:50:31;11.50;99.90
18456;DHT22;9357;49.900;8.208;2022-12-29T05:52:04;11.50;99.90
18456;DHT22;9357;49.900;8.208;2022-12-29T05:53:37;11.60;99.90
18456;DHT22;9357;49.900;8.208;2022-12-29T05:55:11;11.60;99.90
18456;DHT22;9357;49.900;8.208;2022-12-29T05:56:45;11.60;99.90
18456;DHT22;9357;49.900;8.208;2022-12-29T05:58:18;11.60;99.90
18456;DHT22;9357;49.900;8.208;2022-12-29T05:59:49;11.60;99.90
18456;DHT22;9357;49.900;8.208;2022-12-29T06:01:22;11.70;99.90
18456;DHT22;9357;49.900;8.208;2022-12-29T06:02:54;11.60;99.90
18456;DHT22;9357;49.900;8.208;2022-12-29T06:04:27;11.70;99.90
18456;DHT22;9357;49.900;8.208;2022-12-29T06:06:00;11.70;99.90
18456;DHT22;9357;49.900;8.208;2022-12-29T06:07:32;11.70;99.90
18456;DHT22;9357;49.900;8.208;2022-12-29T06:09:04;11.70;99.90
18456;DHT22;9357;49.900;8.208;2022-12-29T06:10:39;11.70;99.90
18456;DHT22;9357;49.900;8.208;2022-12-29T06:12:11;11.70;99.90
18456;DHT22;9357;49.900;8.208;2022-12-29T06:13:44;11.70;99.90
18456;DHT22;9357;49.900;8.208;2022-12-29T06:15:17;11.70;99.90
18456;DHT22;9357;49.900;8.208;2022-12-29T06:16:50;11.70;99.90
18456;DHT22;9357;49.900;8.208;2022-12-29T06:18:23;11.80;99.90
18456;DHT22;9357;49.900;8.208;2022-12-29T06:19:55;11.80;99.90
18456;DHT22;9357;49.900;8.208;2022-12-29T06:21:28;11.80;99.90
18456;DHT22;9357;49.900;8.208;2022-12-29T06:23:01;11.80;99.90
18456;DHT22;9357;49.900;8.208;2022-12-29T06:24:34;11.70;99.90
18456;DHT22;9357;49.900;8.208;2022-12-29T06:26:08;11.70;99.90
18456;DHT22;9357;49.900;8.208;2022-12-29T06:27:41;11.70;99.90
18456;DHT22;9357;49.900;8.208;2022-12-29T06:29:13;11.70;99.90
18456;DHT22;9357;49.900;8.208;2022-12-29T06:30:48;11.70;99.90
18456;DHT22;9357;49.900;8.208;2022-12-29T06:32:20;11.70;99.90
18456;DHT22;9357;49.900;8.208;2022-12-29T06:33:53;11.70;99.90
18456;DHT22;9357;49.900;8.208;2022-12-29T06:35:25;11.70;99.90
18456;DHT22;9357;49.900;8.208;2022-12-29T06:36:58;11.70;99.90
18456;DHT22;9357;49.900;8.208;2022-12-29T06:38:31;11.70;99.90
18456;DHT22;9357;49.900;8.208;2022-12-29T06:40:05;11.70;99.90
18456;DHT22;9357;49.900;8.208;2022-12-29T06:41:39;11.70;99.90
18456;DHT22;9357;49.900;8.208;2022-12-29T06:43:12;11.80;99.90
18456;DHT22;9357;49.900;8.208;2022-12-29T06:44:45;11.70;99.90
18456;DHT22;9357;49.900;8.208;2022-12-29T06:46:17;11.80;99.90
18456;DHT22;9357;49.900;8.208;2022-12-29T06:47:49;11.80;99.90
18456;DHT22;9357;49.900;8.208;2022-12-29T06:49:22;11.80;99.90
18456;DHT22;9357;49.900;8.208;2022-12-29T06:50:55;11.70;99.90
18456;DHT22;9357;49.900;8.208;2022-12-29T06:52:27;11.70;99.90
18456;DHT22;9357;49.900;8.208;2022-12-29T06:54:00;11.80;99.90
18456;DHT22;9357;49.900;8.208;2022-12-29T06:55:33;11.80;99.90
18456;DHT22;9357;49.900;8.208;2022-12-29T06:57:07;11.80;99.90
18456;DHT22;9357;49.900;8.208;2022-12-29T06:58:40;11.90;99.90
18456;DHT22;9357;49.900;8.208;2022-12-29T07:00:13;11.80;99.90
18456;DHT22;9357;49.900;8.208;2022-12-29T07:01:53;11.90;99.90
18456;DHT22;9357;49.900;8.208;2022-12-29T07:03:26;11.80;99.90
18456;DHT22;9357;49.900;8.208;2022-12-29T07:04:59;11.80;99.90
18456;DHT22;9357;49.900;8.208;2022-12-29T07:06:31;11.80;99.90
18456;DHT22;9357;49.900;8.208;2022-12-29T07:08:04;11.80;99.90
18456;DHT22;9357;49.900;8.208;2022-12-29T07:09:37;11.80;99.90
18456;DHT22;9357;49.900;8.208;2022-12-29T07:11:10;11.80;99.90
18456;DHT22;9357;49.900;8.208;2022-12-29T07:12:44;12.00;99.90
18456;DHT22;9357;49.900;8.208;2022-12-29T07:14:17;12.00;99.90
18456;DHT22;9357;49.900;8.208;2022-12-29T07:15:49;11.90;99.90
18456;DHT22;9357;49.900;8.208;2022-12-29T07:17:22;12.00;99.90
18456;DHT22;9357;49.900;8.208;2022-12-29T07:18:55;12.00;99.90
18456;DHT22;9357;49.900;8.208;2022-12-29T07:20:28;11.90;99.90
18456;DHT22;9357;49.900;8.208;2022-12-29T07:22:01;12.10;99.90
18456;DHT22;9357;49.900;8.208;2022-12-29T07:23:33;12.00;99.90
18456;DHT22;9357;49.900;8.208;2022-12-29T07:25:07;12.00;99.90
18456;DHT22;9357;49.900;8.208;2022-12-29T07:26:40;12.00;99.90
18456;DHT22;9357;49.900;8.208;2022-12-29T07:28:14;12.00;99.90
18456;DHT22;9357;49.900;8.208;2022-12-29T07:29:47;11.90;99.90
18456;DHT22;9357;49.900;8.208;2022-12-29T07:31:22;11.90;99.90
18456;DHT22;9357;49.900;8.208;2022-12-29T07:32:54;12.00;99.90
18456;DHT22;9357;49.900;8.208;2022-12-29T07:34:27;11.90;99.90
18456;DHT22;9357;49.900;8.208;2022-12-29T07:36:00;11.90;99.90
18456;DHT22;9357;49.900;8.208;2022-12-29T07:37:33;11.90;99.90
18456;DHT22;9357;49.900;8.208;2022-12-29T07:39:06;11.90;99.90
18456;DHT22;9357;49.900;8.208;2022-12-29T07:40:39;11.90;99.90
18456;DHT22;9357;49.900;8.208;2022-12-29T07:42:12;11.90;99.90
18456;DHT22;9357;49.900;8.208;2022-12-29T07:43:47;11.80;99.90
18456;DHT22;9357;49.900;8.208;2022-12-29T07:45:20;11.80;99.90
18456;DHT22;9357;49.900;8.208;2022-12-29T07:46:53;11.80;99.90
18456;DHT22;9357;49.900;8.208;2022-12-29T07:48:28;11.80;99.90
18456;DHT22;9357;49.900;8.208;2022-12-29T07:50:01;11.80;99.90
18456;DHT22;9357;49.900;8.208;2022-12-29T07:51:33;11.80;99.90
18456;DHT22;9357;49.900;8.208;2022-12-29T07:53:06;11.80;99.90
18456;DHT22;9357;49.900;8.208;2022-12-29T07:54:39;11.80;99.90
18456;DHT22;9357;49.900;8.208;2022-12-29T07:56:12;11.80;99.90
18456;DHT22;9357;49.900;8.208;2022-12-29T07:57:44;11.80;99.90
18456;DHT22;9357;49.900;8.208;2022-12-29T07:59:19;11.80;99.90
18456;DHT22;9357;49.900;8.208;2022-12-29T08:00:53;11.80;99.90
18456;DHT22;9357;49.900;8.208;2022-12-29T08:02:26;11.80;99.90
18456;DHT22;9357;49.900;8.208;2022-12-29T08:04:00;11.80;99.90
18456;DHT22;9357;49.900;8.208;2022-12-29T08:05:33;11.80;99.90
18456;DHT22;9357;49.900;8.208;2022-12-29T08:07:06;11.80;99.90
18456;DHT22;9357;49.900;8.208;2022-12-29T08:08:39;11.70;99.90
18456;DHT22;9357;49.900;8.208;2022-12-29T08:10:13;11.70;99.90
18456;DHT22;9357;49.900;8.208;2022-12-29T08:11:46;11.70;99.90
18456;DHT22;9357;49.900;8.208;2022-12-29T08:13:18;11.70;99.90
18456;DHT22;9357;49.900;8.208;2022-12-29T08:14:52;11.70;99.90
18456;DHT22;9357;49.900;8.208;2022-12-29T08:16:25;11.70;99.90
18456;DHT22;9357;49.900;8.208;2022-12-29T08:17:58;11.70;99.90
18456;DHT22;9357;49.900;8.208;2022-12-29T08:19:31;11.70;99.90
18456;DHT22;9357;49.900;8.208;2022-12-29T08:21:04;11.70;99.90
18456;DHT22;9357;49.900;8.208;2022-12-29T08:22:37;11.80;99.90
18456;DHT22;9357;49.900;8.208;2022-12-29T08:24:10;11.80;99.90
18456;DHT22;9357;49.900;8.208;2022-12-29T08:25:43;11.80;99.90
18456;DHT22;9357;49.900;8.208;2022-12-29T08:27:16;11.80;99.90
18456;DHT22;9357;49.900;8.208;2022-12-29T08:28:52;11.80;99.90
18456;DHT22;9357;49.900;8.208;2022-12-29T08:30:27;11.80;99.90
18456;DHT22;9357;49.900;8.208;2022-12-29T08:32:00;11.80;99.90
18456;DHT22;9357;49.900;8.208;2022-12-29T08:33:32;11.80;99.90
18456;DHT22;9357;49.900;8.208;2022-12-29T08:35:06;11.80;99.90
18456;DHT22;9357;49.900;8.208;2022-12-29T08:36:38;11.80;99.90
18456;DHT22;9357;49.900;8.208;2022-12-29T08:38:11;11.80;99.90
18456;DHT22;9357;49.900;8.208;2022-12-29T08:39:44;11.80;99.90
18456;DHT22;9357;49.900;8.208;2022-12-29T08:41:17;11.80;99.90
18456;DHT22;9357;49.900;8.208;2022-12-29T08:42:50;11.80;99.90
18456;DHT22;9357;49.900;8.208;2022-12-29T08:44:23;11.80;99.90
18456;DHT22;9357;49.900;8.208;2022-12-29T08:45:58;11.80;99.90
18456;DHT22;9357;49.900;8.208;2022-12-29T08:47:31;11.80;99.90
18456;DHT22;9357;49.900;8.208;2022-12-29T08:49:04;11.80;99.90
18456;DHT22;9357;49.900;8.208;2022-12-29T08:50:37;11.90;99.90
18456;DHT22;9357;49.900;8.208;2022-12-29T08:52:09;12.00;99.90
18456;DHT22;9357;49.900;8.208;2022-12-29T08:53:43;11.90;99.90
18456;DHT22;9357;49.900;8.208;2022-12-29T08:55:16;11.90;99.90
18456;DHT22;9357;49.900;8.208;2022-12-29T08:56:48;11.90;99.90
18456;DHT22;9357;49.900;8.208;2022-12-29T08:58:21;11.90;99.90
18456;DHT22;9357;49.900;8.208;2022-12-29T08:59:54;11.90;99.90
18456;DHT22;9357;49.900;8.208;2022-12-29T09:01:28;11.90;99.90
18456;DHT22;9357;49.900;8.208;2022-12-29T09:03:02;12.00;99.90
18456;DHT22;9357;49.900;8.208;2022-12-29T09:04:34;12.10;99.90
18456;DHT22;9357;49.900;8.208;2022-12-29T09:06:07;12.10;99.90
18456;DHT22;9357;49.900;8.208;2022-12-29T09:07:40;12.20;99.90
18456;DHT22;9357;49.900;8.208;2022-12-29T09:09:13;12.20;99.90
18456;DHT22;9357;49.900;8.208;2022-12-29T09:10:46;12.30;99.90
18456;DHT22;9357;49.900;8.208;2022-12-29T09:12:19;12.30;99.90
18456;DHT22;9357;49.900;8.208;2022-12-29T09:13:52;12.40;99.90
18456;DHT22;9357;49.900;8.208;2022-12-29T09:15:25;12.40;99.90
18456;DHT22;9357;49.900;8.208;2022-12-29T09:16:59;12.40;99.90
18456;DHT22;9357;49.900;8.208;2022-12-29T09:18:49;12.40;99.90
18456;DHT22;9357;49.900;8.208;2022-12-29T09:20:22;12.40;99.90
18456;DHT22;9357;49.900;8.208;2022-12-29T09:21:55;12.40;99.90
18456;DHT22;9357;49.900;8.208;2022-12-29T09:23:28;12.50;99.90
18456;DHT22;9357;49.900;8.208;2022-12-29T09:25:01;12.50;99.90
18456;DHT22;9357;49.900;8.208;2022-12-29T09:26:33;12.50;99.90
18456;DHT22;9357;49.900;8.208;2022-12-29T09:28:06;12.60;99.90
18456;DHT22;9357;49.900;8.208;2022-12-29T09:29:39;12.60;99.90
18456;DHT22;9357;49.900;8.208;2022-12-29T09:31:12;12.70;99.90
18456;DHT22;9357;49.900;8.208;2022-12-29T09:32:46;12.70;99.90
18456;DHT22;9357;49.900;8.208;2022-12-29T09:34:25;12.70;99.90
18456;DHT22;9357;49.900;8.208;2022-12-29T09:35:58;12.80;99.90
18456;DHT22;9357;49.900;8.208;2022-12-29T09:37:31;12.80;99.90
18456;DHT22;9357;49.900;8.208;2022-12-29T09:39:04;12.80;99.90
18456;DHT22;9357;49.900;8.208;2022-12-29T09:40:38;12.80;99.90
18456;DHT22;9357;49.900;8.208;2022-12-29T09:42:16;12.80;99.90
18456;DHT22;9357;49.900;8.208;2022-12-29T09:44:06;12.80;99.90
18456;DHT22;9357;49.900;8.208;2022-12-29T09:45:42;12.70;99.90
18456;DHT22;9357;49.900;8.208;2022-12-29T09:47:16;12.60;99.90
18456;DHT22;9357;49.900;8.208;2022-12-29T09:49:03;12.50;99.90
18456;DHT22;9357;49.900;8.208;2022-12-29T09:50:39;12.50;99.90
18456;DHT22;9357;49.900;8.208;2022-12-29T09:52:16;12.40;99.90
18456;DHT22;9357;49.900;8.208;2022-12-29T09:53:55;12.30;99.90
18456;DHT22;9357;49.900;8.208;2022-12-29T09:55:34;12.20;99.90
18456;DHT22;9357;49.900;8.208;2022-12-29T09:57:16;12.20;99.90
18456;DHT22;9357;49.900;8.208;2022-12-29T09:58:54;12.00;99.90
18456;DHT22;9357;49.900;8.208;2022-12-29T10:00:36;12.00;99.90
18456;DHT22;9357;49.900;8.208;2022-12-29T10:02:20;11.90;99.90
18456;DHT22;9357;49.900;8.208;2022-12-29T10:03:56;11.80;99.90
18456;DHT22;9357;49.900;8.208;2022-12-29T10:05:36;11.70;99.90
18456;DHT22;9357;49.900;8.208;2022-12-29T10:07:17;11.70;99.90
18456;DHT22;9357;49.900;8.208;2022-12-29T10:09:06;11.60;99.90
18456;DHT22;9357;49.900;8.208;2022-12-29T10:10:43;11.50;99.90
18456;DHT22;9357;49.900;8.208;2022-12-29T10:12:22;11.50;99.90
18456;DHT22;9357;49.900;8.208;2022-12-29T10:14:16;11.50;99.90